createdAt,value
2023-05-02T00:00:49.657Z,5.40
2023-05-02T00:01:49.668Z,5.70
2023-05-02T00:02:49.579Z,5.20
2023-05-02T00:03:49.713Z,6.10
2023-05-02T00:04:49.591Z,5.60
2023-05-02T00:05:49.544Z,6.00
2023-05-02T00:06:49.690Z,6.10
2023-05-02T00:07:49.535Z,6.10
2023-05-02T00:08:49.647Z,5.90
2023-05-02T00:09:49.500Z,5.90
2023-05-02T00:10:49.553Z,6.20
2023-05-02T00:11:49.566Z,6.00
2023-05-02T00:12:49.460Z,6.10
2023-05-02T00:13:49.475Z,6.10
2023-05-02T00:14:49.617Z,5.80
2023-05-02T00:15:49.445Z,5.90
2023-05-02T00:16:49.515Z,6.30
2023-05-02T00:17:49.555Z,5.90
2023-05-02T00:18:49.259Z,6.30
2023-05-02T00:19:49.442Z,6.30
2023-05-02T00:20:49.444Z,6.10
2023-05-02T00:21:49.469Z,5.90
2023-05-02T00:22:49.360Z,6.10
2023-05-02T00:23:49.350Z,5.90
2023-05-02T00:24:49.348Z,6.40
2023-05-02T00:25:49.326Z,6.10
2023-05-02T00:26:49.321Z,5.90
2023-05-02T00:27:49.414Z,5.70
2023-05-02T00:28:49.319Z,5.90
2023-05-02T00:29:49.317Z,5.60
2023-05-02T00:30:49.433Z,6.00
2023-05-02T00:31:49.271Z,6.30
2023-05-02T00:32:49.325Z,6.80
2023-05-02T00:33:49.284Z,6.80
2023-05-02T00:34:49.127Z,6.60
2023-05-02T00:35:49.281Z,6.10
2023-05-02T00:36:49.266Z,6.10
2023-05-02T00:37:49.111Z,6.30
2023-05-02T00:38:49.249Z,6.20
2023-05-02T00:39:49.153Z,5.70
2023-05-02T00:40:49.128Z,5.40
2023-05-02T00:41:49.122Z,5.70
2023-05-02T00:42:49.253Z,5.60
2023-05-02T00:43:49.150Z,5.70
2023-05-02T00:44:49.133Z,5.20
2023-05-02T00:45:49.133Z,5.60
2023-05-02T00:46:49.265Z,5.40
2023-05-02T00:47:49.276Z,5.60
2023-05-02T00:48:49.158Z,5.80
2023-05-02T00:49:49.131Z,5.40
2023-05-02T00:50:49.106Z,6.00
2023-05-02T00:51:49.092Z,5.80
2023-05-02T00:52:48.996Z,5.70
2023-05-02T00:53:48.894Z,5.60
2023-05-02T00:54:49.123Z,5.30
2023-05-02T00:55:49.019Z,5.10
2023-05-02T00:56:48.998Z,5.80
2023-05-02T00:57:48.996Z,5.70
2023-05-02T00:58:48.881Z,5.30
2023-05-02T00:59:48.993Z,5.10
2023-05-02T01:00:49.032Z,5.20
2023-05-02T01:01:49.018Z,4.80
2023-05-02T01:02:49.164Z,4.90
2023-05-02T01:03:49.082Z,4.80
2023-05-02T01:04:49.057Z,4.60
2023-05-02T01:05:48.816Z,4.80
2023-05-02T01:06:48.980Z,4.80
2023-05-02T01:07:48.933Z,4.80
2023-05-02T01:08:48.935Z,4.80
2023-05-02T01:09:48.932Z,5.10
2023-05-02T01:10:48.967Z,4.90
2023-05-02T01:11:48.896Z,5.10
2023-05-02T01:12:48.887Z,5.20
2023-05-02T01:13:48.893Z,5.20
2023-05-02T01:14:48.843Z,5.30
2023-05-02T01:15:49.003Z,5.10
2023-05-02T01:16:48.865Z,5.10
2023-05-02T01:17:48.824Z,5.50
2023-05-02T01:18:48.792Z,5.50
2023-05-02T01:19:48.791Z,5.90
2023-05-02T01:20:48.868Z,6.00
2023-05-02T01:21:48.792Z,6.00
2023-05-02T01:22:48.772Z,6.00
2023-05-02T01:23:48.691Z,5.50
2023-05-02T01:24:48.773Z,6.10
2023-05-02T01:25:48.767Z,5.70
2023-05-02T01:26:48.756Z,6.10
2023-05-02T01:27:48.750Z,6.30
2023-05-02T01:28:48.670Z,6.30
2023-05-02T01:29:48.663Z,6.50
2023-05-02T01:30:48.631Z,6.50
2023-05-02T01:31:48.839Z,6.90
2023-05-02T01:32:48.735Z,7.40
2023-05-02T01:33:48.664Z,7.10
2023-05-02T01:34:48.642Z,7.10
2023-05-02T01:35:48.650Z,7.50
2023-05-02T01:36:48.664Z,7.70
2023-05-02T01:37:48.584Z,8.10
2023-05-02T01:38:48.587Z,8.00
2023-05-02T01:39:48.596Z,7.90
2023-05-02T01:40:48.594Z,8.00
2023-05-02T01:41:48.679Z,8.30
2023-05-02T01:42:48.630Z,8.50
2023-05-02T01:43:48.613Z,8.10
2023-05-02T01:44:48.604Z,8.30
2023-05-02T01:45:48.586Z,8.30
2023-05-02T01:46:48.665Z,8.70
2023-05-02T01:47:48.848Z,9.00
2023-05-02T01:48:48.459Z,8.90
2023-05-02T01:49:48.411Z,8.70
2023-05-02T01:50:48.484Z,8.80
2023-05-02T01:51:48.551Z,8.60
2023-05-02T01:52:48.384Z,9.50
2023-05-02T01:53:48.424Z,9.00
2023-05-02T01:54:48.425Z,9.50
2023-05-02T01:55:48.419Z,9.50
2023-05-02T01:56:48.444Z,9.10
2023-05-02T01:57:48.528Z,9.30
2023-05-02T01:58:48.406Z,9.50
2023-05-02T01:59:48.382Z,9.40
2023-05-02T02:00:48.462Z,10.20
2023-05-02T02:01:48.405Z,10.40
2023-05-02T02:02:48.423Z,10.50
2023-05-02T02:03:48.390Z,11.40
2023-05-02T02:04:48.549Z,12.30
2023-05-02T02:05:48.310Z,12.00
2023-05-02T02:06:48.546Z,12.20
2023-05-02T02:07:48.215Z,12.40
2023-05-02T02:08:48.105Z,12.40
2023-05-02T02:09:48.267Z,12.00
2023-05-02T02:10:48.272Z,12.30
2023-05-02T02:11:48.275Z,12.10
2023-05-02T02:12:48.358Z,12.80
2023-05-02T02:13:48.202Z,12.90
2023-05-02T02:14:48.279Z,12.50
2023-05-02T02:15:48.251Z,12.90
2023-05-02T02:16:48.254Z,13.10
2023-05-02T02:17:48.297Z,12.90
2023-05-02T02:18:48.206Z,13.20
2023-05-02T02:19:48.204Z,13.20
2023-05-02T02:20:48.283Z,13.20
2023-05-02T02:21:48.148Z,14.00
2023-05-02T02:22:48.053Z,13.40
2023-05-02T02:23:48.191Z,13.50
2023-05-02T02:24:48.070Z,13.70
2023-05-02T02:25:48.178Z,14.20
2023-05-02T02:26:48.079Z,14.20
2023-05-02T02:27:48.039Z,14.50
2023-05-02T02:28:48.054Z,14.80
2023-05-02T02:29:48.191Z,14.20
2023-05-02T02:30:48.104Z,14.90
2023-05-02T02:31:48.067Z,15.50
2023-05-02T02:32:48.131Z,16.00
2023-05-02T02:33:48.070Z,16.20
2023-05-02T02:34:48.014Z,16.00
2023-05-02T02:35:48.118Z,16.50
2023-05-02T02:36:48.075Z,16.90
2023-05-02T02:37:47.931Z,16.90
2023-05-02T02:38:48.028Z,16.60
2023-05-02T02:39:48.051Z,17.30
2023-05-02T02:40:47.988Z,17.50
2023-05-02T02:41:48.075Z,17.50
2023-05-02T02:42:48.030Z,18.00
2023-05-02T02:43:47.920Z,18.20
2023-05-02T02:44:47.935Z,18.60
2023-05-02T02:45:47.951Z,18.80
2023-05-02T02:46:48.206Z,18.60
2023-05-02T02:47:47.972Z,19.40
2023-05-02T02:48:48.004Z,18.50
2023-05-02T02:49:47.844Z,19.00
2023-05-02T02:50:47.757Z,18.90
2023-05-02T02:51:47.741Z,19.40
2023-05-02T02:52:47.825Z,18.70
2023-05-02T02:53:47.730Z,18.40
2023-05-02T02:54:47.737Z,19.70
2023-05-02T02:55:47.668Z,19.60
2023-05-02T02:56:47.785Z,19.30
2023-05-02T02:57:47.777Z,19.60
2023-05-02T02:58:47.750Z,19.10
2023-05-02T02:59:47.883Z,19.40
2023-05-02T03:00:47.837Z,19.70
2023-05-02T03:01:47.660Z,19.60
2023-05-02T03:02:47.834Z,19.20
2023-05-02T03:03:47.793Z,20.10
2023-05-02T03:04:47.608Z,19.80
2023-05-02T03:05:47.691Z,19.10
2023-05-02T03:06:47.679Z,19.80
2023-05-02T03:07:47.700Z,18.90
2023-05-02T03:08:47.636Z,19.50
2023-05-02T03:09:47.618Z,18.60
2023-05-02T03:10:47.518Z,18.50
2023-05-02T03:11:47.493Z,17.90
2023-05-02T03:12:47.693Z,18.00
2023-05-02T03:13:47.704Z,18.30
2023-05-02T03:14:47.706Z,18.30
2023-05-02T03:15:47.779Z,18.00
2023-05-02T03:16:47.652Z,17.70
2023-05-02T03:17:47.688Z,18.10
2023-05-02T03:18:47.537Z,17.30
2023-05-02T03:19:47.704Z,17.40
2023-05-02T03:20:47.680Z,17.10
2023-05-02T03:21:47.608Z,17.30
2023-05-02T03:22:47.431Z,16.80
2023-05-02T03:23:47.595Z,17.10
2023-05-02T03:24:47.526Z,16.60
2023-05-02T03:25:47.584Z,17.60
2023-05-02T03:26:47.662Z,16.90
2023-05-02T03:27:47.567Z,17.50
2023-05-02T03:28:47.442Z,17.40
2023-05-02T03:29:47.351Z,17.60
2023-05-02T03:30:47.291Z,17.50
2023-05-02T03:31:47.476Z,17.20
2023-05-02T03:32:47.471Z,17.00
2023-05-02T03:33:47.362Z,17.10
2023-05-02T03:34:47.367Z,16.80
2023-05-02T03:35:47.360Z,18.10
2023-05-02T03:36:47.376Z,17.70
2023-05-02T03:37:47.249Z,17.70
2023-05-02T03:38:47.295Z,17.40
2023-05-02T03:39:47.293Z,17.50
2023-05-02T03:40:47.301Z,17.60
2023-05-02T03:41:47.301Z,17.40
2023-05-02T03:42:47.389Z,17.50
2023-05-02T03:43:47.314Z,17.20
2023-05-02T03:44:47.234Z,18.40
2023-05-02T03:45:48.808Z,17.40
2023-05-02T03:46:47.330Z,18.10
2023-05-02T03:47:47.242Z,18.40
2023-05-02T03:48:47.085Z,17.90
2023-05-02T03:49:47.073Z,18.40
2023-05-02T03:50:47.037Z,17.60
2023-05-02T03:51:47.167Z,18.20
2023-05-02T03:52:47.112Z,18.20
2023-05-02T03:53:47.036Z,18.60
2023-05-02T03:54:47.069Z,19.40
2023-05-02T03:55:47.084Z,18.50
2023-05-02T03:56:47.147Z,18.70
2023-05-02T03:57:47.112Z,18.30
2023-05-02T03:58:47.199Z,18.90
2023-05-02T03:59:47.211Z,17.90
2023-05-02T04:00:46.983Z,19.70
2023-05-02T04:01:46.969Z,19.10
2023-05-02T04:02:47.282Z,20.10
2023-05-02T04:03:47.059Z,21.20
2023-05-02T04:04:47.568Z,22.40
2023-05-02T04:05:47.178Z,22.80
2023-05-02T04:06:47.232Z,22.70
2023-05-02T04:07:46.909Z,23.80
2023-05-02T04:08:47.030Z,23.30
2023-05-02T04:09:47.070Z,24.60
2023-05-02T04:10:47.099Z,23.80
2023-05-02T04:11:46.962Z,25.20
2023-05-02T04:12:47.069Z,25.00
2023-05-02T04:13:47.031Z,25.30
2023-05-02T04:14:47.033Z,25.20
2023-05-02T04:15:46.948Z,25.30
2023-05-02T04:16:47.060Z,25.90
2023-05-02T04:17:46.966Z,24.90
2023-05-02T04:18:46.963Z,25.40
2023-05-02T04:19:46.949Z,25.80
2023-05-02T04:20:46.933Z,24.10
2023-05-02T04:21:47.007Z,25.60
2023-05-02T04:22:46.776Z,24.70
2023-05-02T04:23:46.863Z,25.70
2023-05-02T04:24:46.795Z,25.80
2023-05-02T04:25:46.821Z,26.20
2023-05-02T04:26:46.908Z,24.80
2023-05-02T04:27:46.859Z,26.20
2023-05-02T04:28:46.877Z,26.50
2023-05-02T04:29:46.826Z,24.70
2023-05-02T04:30:46.905Z,25.90
2023-05-02T04:31:46.836Z,23.60
2023-05-02T04:32:46.776Z,24.10
2023-05-02T04:33:46.834Z,23.20
2023-05-02T04:34:46.771Z,22.20
2023-05-02T04:35:46.795Z,23.50
2023-05-02T04:36:46.820Z,22.00
2023-05-02T04:37:46.624Z,20.80
2023-05-02T04:38:46.712Z,20.60
2023-05-02T04:39:46.864Z,19.30
2023-05-02T04:40:46.701Z,19.30
2023-05-02T04:41:46.546Z,18.80
2023-05-02T04:42:46.565Z,18.30
2023-05-02T04:43:46.899Z,18.70
2023-05-02T04:44:46.490Z,18.50
2023-05-02T04:45:46.725Z,17.70
2023-05-02T04:46:46.618Z,17.70
2023-05-02T04:47:46.636Z,16.90
2023-05-02T04:48:46.632Z,15.50
2023-05-02T04:49:46.499Z,16.80
2023-05-02T04:50:46.499Z,16.80
2023-05-02T04:51:46.504Z,16.40
2023-05-02T04:52:46.472Z,16.30
2023-05-02T04:53:46.651Z,15.80
2023-05-02T04:54:46.539Z,16.30
2023-05-02T04:55:46.475Z,16.10
2023-05-02T04:56:46.581Z,16.50
2023-05-02T04:57:46.521Z,15.70
2023-05-02T04:58:46.594Z,17.20
2023-05-02T04:59:46.501Z,16.80
2023-05-02T05:00:46.528Z,16.30
2023-05-02T05:01:46.558Z,17.60
2023-05-02T05:02:46.637Z,16.40
2023-05-02T05:03:46.569Z,16.90
2023-05-02T05:04:46.513Z,16.60
2023-05-02T05:05:46.423Z,16.70
2023-05-02T05:06:46.503Z,17.20
2023-05-02T05:07:46.338Z,17.20
2023-05-02T05:08:46.419Z,17.00
2023-05-02T05:09:46.448Z,17.40
2023-05-02T05:10:46.483Z,18.00
2023-05-02T05:11:46.231Z,16.80
2023-05-02T05:12:46.433Z,16.70
2023-05-02T05:13:46.397Z,16.00
2023-05-02T05:14:46.408Z,16.30
2023-05-02T05:15:46.477Z,16.70
2023-05-02T05:16:46.433Z,16.40
2023-05-02T05:17:46.441Z,16.80
2023-05-02T05:18:46.341Z,17.60
2023-05-02T05:19:46.418Z,17.60
2023-05-02T05:20:46.335Z,16.30
2023-05-02T05:21:46.407Z,17.20
2023-05-02T05:22:46.125Z,16.90
2023-05-02T05:23:46.433Z,17.80
2023-05-02T05:24:46.279Z,16.30
2023-05-02T05:25:46.368Z,16.70
2023-05-02T05:26:46.280Z,15.20
2023-05-02T05:27:46.224Z,14.60
2023-05-02T05:28:46.322Z,13.30
2023-05-02T05:29:46.250Z,13.70
2023-05-02T05:30:46.188Z,13.20
2023-05-02T05:31:46.276Z,13.10
2023-05-02T05:32:46.236Z,13.80
2023-05-02T05:33:46.147Z,14.30
2023-05-02T05:34:46.278Z,13.60
2023-05-02T05:35:46.218Z,14.80
2023-05-02T05:36:46.233Z,14.40
2023-05-02T05:37:45.943Z,15.30
2023-05-02T05:38:46.241Z,14.30
2023-05-02T05:39:46.114Z,14.40
2023-05-02T05:40:46.132Z,14.20
2023-05-02T05:41:46.140Z,14.80
2023-05-02T05:42:46.063Z,14.40
2023-05-02T05:43:46.128Z,15.60
2023-05-02T05:44:46.064Z,15.20
2023-05-02T05:45:46.215Z,15.20
2023-05-02T05:46:46.072Z,14.90
2023-05-02T05:47:46.081Z,15.30
2023-05-02T05:48:46.047Z,15.30
2023-05-02T05:49:46.161Z,14.60
2023-05-02T05:50:46.043Z,14.70
2023-05-02T05:51:46.029Z,15.00
2023-05-02T05:52:45.942Z,14.60
2023-05-02T05:53:46.011Z,14.80
2023-05-02T05:54:46.032Z,14.70
2023-05-02T05:55:45.931Z,13.60
2023-05-02T05:56:46.021Z,12.90
2023-05-02T05:57:45.950Z,12.70
2023-05-02T05:58:45.964Z,12.70
2023-05-02T05:59:45.960Z,12.80
2023-05-02T06:00:45.956Z,12.50
2023-05-02T06:01:45.940Z,11.80
2023-05-02T06:02:45.991Z,11.90
2023-05-02T06:03:45.776Z,11.50
2023-05-02T06:04:45.954Z,11.60
2023-05-02T06:05:45.955Z,11.90
2023-05-02T06:06:45.912Z,12.20
2023-05-02T06:07:45.742Z,12.40
2023-05-02T06:08:45.880Z,11.70
2023-05-02T06:09:45.676Z,11.70
2023-05-02T06:10:45.835Z,12.30
2023-05-02T06:11:45.660Z,11.70
2023-05-02T06:12:47.173Z,10.10
2023-05-02T06:13:45.660Z,8.70
2023-05-02T06:14:45.628Z,8.10
2023-05-02T06:15:45.859Z,7.90
2023-05-02T06:16:45.800Z,8.10
2023-05-02T06:17:45.835Z,8.10
2023-05-02T06:18:45.760Z,8.40
2023-05-02T06:19:45.742Z,5.40
2023-05-02T06:20:45.731Z,6.10
2023-05-02T06:21:45.702Z,5.30
2023-05-02T06:22:45.585Z,3.60
2023-05-02T06:23:45.747Z,3.90
2023-05-02T06:24:45.835Z,3.20
2023-05-02T06:25:45.721Z,3.20
2023-05-02T06:26:45.809Z,2.70
2023-05-02T06:27:45.665Z,2.50
2023-05-02T06:28:45.536Z,2.90
2023-05-02T06:29:45.541Z,2.90
2023-05-02T06:30:45.541Z,3.00
2023-05-02T06:31:45.471Z,2.80
2023-05-02T06:32:45.574Z,3.00
2023-05-02T06:33:45.462Z,3.10
2023-05-02T06:34:45.516Z,3.20
2023-05-02T06:35:45.568Z,3.10
2023-05-02T06:36:45.538Z,3.10
2023-05-02T06:37:45.482Z,3.30
2023-05-02T06:38:45.532Z,3.30
2023-05-02T06:39:45.501Z,3.40
2023-05-02T06:40:45.520Z,3.70
2023-05-02T06:41:45.513Z,3.50
2023-05-02T06:42:45.338Z,3.80
2023-05-02T06:43:45.513Z,3.90
2023-05-02T06:44:45.490Z,3.60
2023-05-02T06:45:45.569Z,3.50
2023-05-02T06:46:45.527Z,3.60
2023-05-02T06:47:45.567Z,3.50
2023-05-02T06:48:45.409Z,3.80
2023-05-02T06:49:45.401Z,3.90
2023-05-02T06:50:45.395Z,4.10
2023-05-02T06:51:45.466Z,3.50
2023-05-02T06:52:45.360Z,3.90
2023-05-02T06:53:45.276Z,3.80
2023-05-02T06:54:45.475Z,4.00
2023-05-02T06:55:45.343Z,3.70
2023-05-02T06:56:45.454Z,4.30
2023-05-02T06:57:45.336Z,3.80
2023-05-02T06:58:45.306Z,3.50
2023-05-02T06:59:45.286Z,4.10
2023-05-02T07:00:45.318Z,3.60
2023-05-02T07:01:45.337Z,3.80
2023-05-02T07:02:45.417Z,4.00
2023-05-02T07:03:45.367Z,4.00
2023-05-02T07:04:45.353Z,3.30
2023-05-02T07:05:45.245Z,3.80
2023-05-02T07:06:45.300Z,3.50
2023-05-02T07:07:45.324Z,3.90
2023-05-02T07:08:45.203Z,3.40
2023-05-02T07:09:45.189Z,3.70
2023-05-02T07:10:45.263Z,3.80
2023-05-02T07:11:45.165Z,3.40
2023-05-02T07:12:45.109Z,3.70
2023-05-02T07:13:45.139Z,3.70
2023-05-02T07:14:45.052Z,3.70
2023-05-02T07:15:44.992Z,3.40
2023-05-02T07:16:45.105Z,3.90
2023-05-02T07:17:45.086Z,3.80
2023-05-02T07:18:45.032Z,3.50
2023-05-02T07:19:45.598Z,3.60
2023-05-02T07:20:45.096Z,3.70
2023-05-02T07:21:44.995Z,3.40
2023-05-02T07:22:45.070Z,3.60
2023-05-02T07:23:44.993Z,3.80
2023-05-02T07:24:45.026Z,3.90
2023-05-02T07:25:44.967Z,3.80
2023-05-02T07:26:44.947Z,3.60
2023-05-02T07:27:44.937Z,3.70
2023-05-02T07:28:45.018Z,3.30
2023-05-02T07:29:45.095Z,3.50
2023-05-02T07:30:45.066Z,3.30
2023-05-02T07:31:45.077Z,3.40
2023-05-02T07:32:45.005Z,3.40
2023-05-02T07:33:44.932Z,3.30
2023-05-02T07:34:44.917Z,3.50
2023-05-02T07:35:45.009Z,3.50
2023-05-02T07:36:44.791Z,3.90
2023-05-02T07:37:44.764Z,3.50
2023-05-02T07:38:44.931Z,3.60
2023-05-02T07:39:44.924Z,4.10
2023-05-02T07:40:44.726Z,3.80
2023-05-02T07:41:44.899Z,3.90
2023-05-02T07:42:44.716Z,3.70
2023-05-02T07:43:44.826Z,3.60
2023-05-02T07:44:44.993Z,3.80
2023-05-02T07:45:44.872Z,4.00
2023-05-02T07:46:44.736Z,4.00
2023-05-02T07:47:45.004Z,4.20
2023-05-02T07:48:44.906Z,3.70
2023-05-02T07:49:44.806Z,4.40
2023-05-02T07:50:44.768Z,4.20
2023-05-02T07:51:44.919Z,3.70
2023-05-02T07:52:44.655Z,3.80
2023-05-02T07:53:44.763Z,4.40
2023-05-02T07:54:44.727Z,4.20
2023-05-02T07:55:44.749Z,4.30
2023-05-02T07:56:44.792Z,4.10
2023-05-02T07:57:44.763Z,4.50
2023-05-02T07:58:44.698Z,3.80
2023-05-02T07:59:44.663Z,4.20
2023-05-02T08:00:44.698Z,4.00
2023-05-02T08:01:44.681Z,4.00
2023-05-02T08:02:44.592Z,4.40
2023-05-02T08:03:44.702Z,4.40
2023-05-02T08:04:44.649Z,4.00
2023-05-02T08:05:44.708Z,4.40
2023-05-02T08:06:44.681Z,4.20
2023-05-02T08:07:44.476Z,4.60
2023-05-02T08:08:44.648Z,4.30
2023-05-02T08:09:44.681Z,4.00
2023-05-02T08:10:44.734Z,4.90
2023-05-02T08:11:44.541Z,4.30
2023-05-02T08:12:44.506Z,4.50
2023-05-02T08:13:44.423Z,4.20
2023-05-02T08:14:44.400Z,4.90
2023-05-02T08:15:44.549Z,4.80
2023-05-02T08:16:46.171Z,5.00
2023-05-02T08:17:44.564Z,4.80
2023-05-02T08:18:44.601Z,5.50
2023-05-02T08:19:44.472Z,5.10
2023-05-02T08:20:44.528Z,5.20
2023-05-02T08:21:44.382Z,4.80
2023-05-02T08:22:44.370Z,5.20
2023-05-02T08:23:44.532Z,4.80
2023-05-02T08:24:44.452Z,4.70
2023-05-02T08:25:44.426Z,4.60
2023-05-02T08:26:44.403Z,5.10
2023-05-02T08:27:44.370Z,4.60
2023-05-02T08:28:44.423Z,4.60
2023-05-02T08:29:44.423Z,5.10
2023-05-02T08:30:44.253Z,4.60
2023-05-02T08:31:44.476Z,4.30
2023-05-02T08:32:44.413Z,4.00
2023-05-02T08:33:44.335Z,4.60
2023-05-02T08:34:44.417Z,4.20
2023-05-02T08:35:44.265Z,4.40
2023-05-02T08:36:44.283Z,4.50
2023-05-02T08:37:44.252Z,5.10
2023-05-02T08:38:44.200Z,4.60
2023-05-02T08:39:44.174Z,4.60
2023-05-02T08:40:44.201Z,4.40
2023-05-02T08:41:44.229Z,4.50
2023-05-02T08:42:44.210Z,4.30
2023-05-02T08:43:44.113Z,4.10
2023-05-02T08:44:44.095Z,4.40
2023-05-02T08:45:44.044Z,4.00
2023-05-02T08:46:44.126Z,4.40
2023-05-02T08:47:44.062Z,4.60
2023-05-02T08:48:44.015Z,4.50
2023-05-02T08:49:43.989Z,4.50
2023-05-02T08:50:44.037Z,4.20
2023-05-02T08:51:43.948Z,4.70
2023-05-02T08:52:44.114Z,4.40
2023-05-02T08:53:44.114Z,4.40
2023-05-02T08:54:44.095Z,5.00
2023-05-02T08:55:44.067Z,4.40
2023-05-02T08:56:43.974Z,4.10
2023-05-02T08:57:43.950Z,4.70
2023-05-02T08:58:44.166Z,4.60
2023-05-02T08:59:44.027Z,4.80
2023-05-02T09:00:44.128Z,4.20
2023-05-02T09:01:44.117Z,4.80
2023-05-02T09:02:44.120Z,4.70
2023-05-02T09:03:44.014Z,4.50
2023-05-02T09:04:44.053Z,4.20
2023-05-02T09:05:43.897Z,4.90
2023-05-02T09:06:44.025Z,4.80
2023-05-02T09:07:43.946Z,4.60
2023-05-02T09:08:43.964Z,4.90
2023-05-02T09:09:43.885Z,4.70
2023-05-02T09:10:43.977Z,4.40
2023-05-02T09:11:43.906Z,4.70
2023-05-02T09:12:43.933Z,4.50
2023-05-02T09:13:43.949Z,4.80
2023-05-02T09:14:43.860Z,4.50
2023-05-02T09:15:43.883Z,4.60
2023-05-02T09:16:44.059Z,4.40
2023-05-02T09:17:44.198Z,5.10
2023-05-02T09:18:43.894Z,4.80
2023-05-02T09:19:43.987Z,4.80
2023-05-02T09:20:44.006Z,5.10
2023-05-02T09:21:43.812Z,5.00
2023-05-02T09:22:43.783Z,5.00
2023-05-02T09:23:43.767Z,4.90
2023-05-02T09:24:43.692Z,4.70
2023-05-02T09:25:43.673Z,4.90
2023-05-02T09:26:43.760Z,4.90
2023-05-02T09:27:43.754Z,5.10
2023-05-02T09:28:43.638Z,5.10
2023-05-02T09:29:43.816Z,5.50
2023-05-02T09:30:43.632Z,5.20
2023-05-02T09:31:55.512Z,5.30
2023-05-02T09:32:43.610Z,5.40
2023-05-02T09:33:43.714Z,4.90
2023-05-02T09:34:43.772Z,5.10
2023-05-02T09:35:43.724Z,5.50
2023-05-02T09:36:43.789Z,4.90
2023-05-02T09:37:43.779Z,4.90
2023-05-02T09:38:43.507Z,4.80
2023-05-02T09:39:43.535Z,4.90
2023-05-02T09:40:43.527Z,5.00
2023-05-02T09:41:43.770Z,4.70
2023-05-02T09:42:43.676Z,5.00
2023-05-02T09:43:43.595Z,5.60
2023-05-02T09:44:43.514Z,5.50
2023-05-02T09:45:43.613Z,5.60
2023-05-02T09:46:43.630Z,4.90
2023-05-02T09:47:43.666Z,5.00
2023-05-02T09:48:43.496Z,4.80
2023-05-02T09:49:43.578Z,5.00
2023-05-02T09:50:43.475Z,5.00
2023-05-02T09:51:43.426Z,5.00
2023-05-02T09:52:43.409Z,4.80
2023-05-02T09:53:43.456Z,5.00
2023-05-02T09:54:43.394Z,5.00
2023-05-02T09:55:43.566Z,4.80
2023-05-02T09:56:43.420Z,5.00
2023-05-02T09:57:43.546Z,4.80
2023-05-02T09:58:43.448Z,5.00
2023-05-02T09:59:43.326Z,4.90
2023-05-02T10:00:43.365Z,6.20
2023-05-02T10:01:43.518Z,5.70
2023-05-02T10:02:43.492Z,5.10
2023-05-02T10:03:43.345Z,5.20
2023-05-02T10:04:43.350Z,5.10
2023-05-02T10:05:43.241Z,5.20
2023-05-02T10:06:43.356Z,5.30
2023-05-02T10:07:43.461Z,6.10
2023-05-02T10:08:43.389Z,5.30
2023-05-02T10:09:43.351Z,5.90
2023-05-02T10:10:43.306Z,6.20
2023-05-02T10:11:43.304Z,6.00
2023-05-02T10:12:43.467Z,5.30
2023-05-02T10:13:43.341Z,5.30
2023-05-02T10:14:43.313Z,5.00
2023-05-02T10:15:43.363Z,4.70
2023-05-02T10:16:43.169Z,4.60
2023-05-02T10:17:43.493Z,4.60
2023-05-02T10:18:43.288Z,4.40
2023-05-02T10:19:43.287Z,5.10
2023-05-02T10:20:43.275Z,4.70
2023-05-02T10:21:43.237Z,4.10
2023-05-02T10:22:43.229Z,4.10
2023-05-02T10:23:43.203Z,4.50
2023-05-02T10:24:43.181Z,4.30
2023-05-02T10:25:43.241Z,3.70
2023-05-02T10:26:43.139Z,4.00
2023-05-02T10:27:43.277Z,3.70
2023-05-02T10:28:43.175Z,3.80
2023-05-02T10:29:43.148Z,3.60
2023-05-02T10:30:43.105Z,3.30
2023-05-02T10:31:44.793Z,3.40
2023-05-02T10:32:43.139Z,3.70
2023-05-02T10:33:43.107Z,3.50
2023-05-02T10:34:43.036Z,3.60
2023-05-02T10:35:43.015Z,3.70
2023-05-02T10:36:42.970Z,3.50
2023-05-02T10:37:43.054Z,3.50
2023-05-02T10:38:43.061Z,3.50
2023-05-02T10:39:43.055Z,3.30
2023-05-02T10:40:42.914Z,3.50
2023-05-02T10:41:43.024Z,3.50
2023-05-02T10:42:42.863Z,3.40
2023-05-02T10:43:42.878Z,3.40
2023-05-02T10:44:42.955Z,3.30
2023-05-02T10:45:42.929Z,3.20
2023-05-02T10:46:42.887Z,3.10
2023-05-02T10:47:43.046Z,2.70
2023-05-02T10:48:42.919Z,2.70
2023-05-02T10:49:42.823Z,2.90
2023-05-02T10:50:42.778Z,3.10
2023-05-02T10:51:42.752Z,2.90
2023-05-02T10:52:42.802Z,2.70
2023-05-02T10:53:42.829Z,2.80
2023-05-02T10:54:42.739Z,2.90
2023-05-02T10:55:42.810Z,2.90
2023-05-02T10:56:42.733Z,3.40
2023-05-02T10:57:42.815Z,3.20
2023-05-02T10:58:42.780Z,2.90
2023-05-02T10:59:42.771Z,3.10
2023-05-02T11:00:42.826Z,3.00
2023-05-02T11:01:42.797Z,3.10
2023-05-02T11:02:42.926Z,3.30
2023-05-02T11:03:42.846Z,2.90
2023-05-02T11:04:42.812Z,3.00
2023-05-02T11:05:42.723Z,3.30
2023-05-02T11:06:42.800Z,3.80
2023-05-02T11:07:42.714Z,3.60
2023-05-02T11:08:42.805Z,4.20
2023-05-02T11:09:42.719Z,5.10
2023-05-02T11:10:42.702Z,5.70
2023-05-02T11:11:43.002Z,7.70
2023-05-02T11:12:42.724Z,6.80
2023-05-02T11:13:42.548Z,6.90
2023-05-02T11:14:42.784Z,6.60
2023-05-02T11:15:42.709Z,4.10
2023-05-02T11:16:42.614Z,4.40
2023-05-02T11:17:42.629Z,4.00
2023-05-02T11:18:42.599Z,3.60
2023-05-02T11:19:42.711Z,4.00
2023-05-02T11:20:42.570Z,4.00
2023-05-02T11:21:42.555Z,3.80
2023-05-02T11:22:42.537Z,3.80
2023-05-02T11:23:42.629Z,3.90
2023-05-02T11:24:42.700Z,3.90
2023-05-02T11:25:42.661Z,3.60
2023-05-02T11:26:42.554Z,3.60
2023-05-02T11:27:42.527Z,3.70
2023-05-02T11:28:42.525Z,3.50
2023-05-02T11:29:42.580Z,3.50
2023-05-02T11:30:42.590Z,3.90
2023-05-02T11:31:42.611Z,3.70
2023-05-02T11:32:42.610Z,3.60
2023-05-02T11:33:42.381Z,3.80
2023-05-02T11:34:42.450Z,4.30
2023-05-02T11:35:42.455Z,5.00
2023-05-02T11:36:42.583Z,4.10
2023-05-02T11:37:42.464Z,3.90
2023-05-02T11:38:42.437Z,3.50
2023-05-02T11:39:42.246Z,3.70
2023-05-02T11:40:42.407Z,4.10
2023-05-02T11:41:42.412Z,3.40
2023-05-02T11:42:42.521Z,3.30
2023-05-02T11:43:42.394Z,3.70
2023-05-02T11:44:42.376Z,3.60
2023-05-02T11:45:42.398Z,3.40
2023-05-02T11:46:42.415Z,3.30
2023-05-02T11:47:42.336Z,3.20
2023-05-02T11:48:42.286Z,3.60
2023-05-02T11:49:42.282Z,3.70
2023-05-02T11:50:48.591Z,3.60
2023-05-02T11:51:42.352Z,3.50
2023-05-02T11:52:42.303Z,3.70
2023-05-02T11:53:42.378Z,3.30
2023-05-02T11:54:42.228Z,3.50
2023-05-02T11:55:42.206Z,3.60
2023-05-02T11:56:42.194Z,3.40
2023-05-02T11:57:42.296Z,3.40
2023-05-02T11:58:42.272Z,3.20
2023-05-02T11:59:42.234Z,3.50
2023-05-02T12:00:42.210Z,3.20
2023-05-02T12:01:42.119Z,3.70
2023-05-02T12:02:42.374Z,3.60
2023-05-02T12:03:42.376Z,3.60
2023-05-02T12:04:42.162Z,3.70
2023-05-02T12:05:42.179Z,3.90
2023-05-02T12:06:42.133Z,3.80
2023-05-02T12:07:42.111Z,4.10
2023-05-02T12:08:42.147Z,3.80
2023-05-02T12:09:42.177Z,3.90
2023-05-02T12:10:42.099Z,3.70
2023-05-02T12:11:42.104Z,4.00
2023-05-02T12:12:42.090Z,3.80
2023-05-02T12:13:41.929Z,4.00
2023-05-02T12:14:41.911Z,3.80
2023-05-02T12:15:42.029Z,3.80
2023-05-02T12:16:41.896Z,4.00
2023-05-02T12:17:42.143Z,3.60
2023-05-02T12:18:41.956Z,4.10
2023-05-02T12:19:41.904Z,4.20
2023-05-02T12:20:42.006Z,3.70
2023-05-02T12:21:41.995Z,4.00
2023-05-02T12:22:41.969Z,4.20
2023-05-02T12:23:41.969Z,3.90
2023-05-02T12:24:42.026Z,4.00
2023-05-02T12:25:41.941Z,3.90
2023-05-02T12:26:41.760Z,3.80
2023-05-02T12:27:41.868Z,3.70
2023-05-02T12:28:41.938Z,3.90
2023-05-02T12:29:41.916Z,3.60
2023-05-02T12:30:41.895Z,3.70
2023-05-02T12:31:41.839Z,3.80
2023-05-02T12:32:41.854Z,3.90
2023-05-02T12:33:41.832Z,3.50
2023-05-02T12:34:41.639Z,3.50
2023-05-02T12:35:41.825Z,3.70
2023-05-02T12:36:41.724Z,3.40
2023-05-02T12:37:41.646Z,3.80
2023-05-02T12:38:41.767Z,3.30
2023-05-02T12:39:41.662Z,3.30
2023-05-02T12:40:41.624Z,3.80
2023-05-02T12:41:41.853Z,3.90
2023-05-02T12:42:41.767Z,3.40
2023-05-02T12:43:41.586Z,3.80
2023-05-02T12:44:41.726Z,3.80
2023-05-02T12:45:41.587Z,3.70
2023-05-02T12:46:41.610Z,3.50
2023-05-02T12:47:41.606Z,3.60
2023-05-02T12:48:41.636Z,3.50
2023-05-02T12:49:41.523Z,3.60
2023-05-02T12:50:41.667Z,3.70
2023-05-02T12:51:41.654Z,3.70
2023-05-02T12:52:41.744Z,3.60
2023-05-02T12:53:41.656Z,3.60
2023-05-02T12:54:41.714Z,3.50
2023-05-02T12:55:41.601Z,3.00
2023-05-02T12:56:41.677Z,3.30
2023-05-02T12:57:41.630Z,3.50
2023-05-02T12:58:41.597Z,3.30
2023-05-02T12:59:41.552Z,3.40
2023-05-02T13:00:41.615Z,3.20
2023-05-02T13:01:41.653Z,3.10
2023-05-02T13:02:41.581Z,3.30
2023-05-02T13:03:41.515Z,3.30
2023-05-02T13:04:41.562Z,3.40
2023-05-02T13:05:41.592Z,2.90
2023-05-02T13:06:41.569Z,2.80
2023-05-02T13:07:41.473Z,3.10
2023-05-02T13:08:41.483Z,3.40
2023-05-02T13:09:41.500Z,3.00
2023-05-02T13:10:41.429Z,3.50